Terminal Aerodrome Forecast
Issued by NWS

Home | Current Version | Previous Version | Text Only | Print | Product List | Glossary On
Versions: 1 2 3 4 5 6 7 8 9 10 11 12 13
000
FTUS43 KLSX 242320
TAFSUS
TAF
KSUS 242320Z 2500/2524 12007KT P6SM SCT250
     FM250600 15008KT P6SM FEW250
     FM251800 16014G24KT P6SM SCT200=

USA.gov is the U.S. government's official web portal to all federal, state and local government web resources and services.